createdAt,value
2018-03-29T00:02:07.920Z,91.20
2018-03-29T00:05:30.777Z,91.10
2018-03-29T00:08:53.615Z,90.70
2018-03-29T00:12:16.498Z,91.10
2018-03-29T00:15:39.375Z,91.30
2018-03-29T00:19:02.233Z,90.90
2018-03-29T00:22:25.095Z,90.50
2018-03-29T00:25:47.939Z,90.60
2018-03-29T00:29:10.779Z,90.90
2018-03-29T00:32:33.616Z,91.10
2018-03-29T00:35:57.269Z,89.30
2018-03-29T00:39:20.111Z,89.30
2018-03-29T00:42:43.002Z,90.10
2018-03-29T00:46:06.619Z,88.40
2018-03-29T00:49:29.467Z,88.50
2018-03-29T00:52:52.316Z,88.60
2018-03-29T00:56:15.174Z,87.30
2018-03-29T00:59:38.001Z,86.60
2018-03-29T01:03:00.868Z,86.10
2018-03-29T01:06:23.738Z,86.70
2018-03-29T01:09:47.348Z,88.00
2018-03-29T01:13:11.329Z,88.00
2018-03-29T01:16:34.218Z,88.50
2018-03-29T01:19:57.065Z,89.50
2018-03-29T01:23:19.905Z,89.50
2018-03-29T01:26:43.576Z,88.60
2018-03-29T01:30:06.402Z,88.60
2018-03-29T01:33:30.063Z,88.40
2018-03-29T01:36:52.908Z,88.30
2018-03-29T01:40:15.736Z,89.00
2018-03-29T01:43:38.618Z,87.90
2018-03-29T01:47:01.463Z,87.90
2018-03-29T01:50:24.335Z,88.40
2018-03-29T01:53:47.274Z,88.00
2018-03-29T01:57:10.141Z,87.40
2018-03-29T02:00:32.994Z,88.10
2018-03-29T02:03:55.848Z,87.60
2018-03-29T02:07:18.667Z,87.40
2018-03-29T02:10:41.559Z,86.30
2018-03-29T02:14:04.513Z,84.00
2018-03-29T02:17:27.378Z,82.80
2018-03-29T02:20:50.231Z,83.60
2018-03-29T02:24:13.099Z,82.60
2018-03-29T02:27:36.722Z,82.10
2018-03-29T02:30:59.566Z,82.00
2018-03-29T02:34:22.418Z,82.70
2018-03-29T02:37:45.263Z,83.80
2018-03-29T02:41:08.118Z,81.50
2018-03-29T02:44:30.950Z,80.50
2018-03-29T02:47:53.813Z,79.80
2018-03-29T02:51:16.669Z,80.20
2018-03-29T02:54:39.491Z,80.20
2018-03-29T02:58:02.348Z,81.20
2018-03-29T03:01:25.202Z,82.00
2018-03-29T03:04:48.055Z,82.50
2018-03-29T03:08:11.117Z,82.40
2018-03-29T03:11:33.971Z,81.90
2018-03-29T03:14:56.823Z,82.40
2018-03-29T03:18:19.691Z,81.50
2018-03-29T03:21:43.296Z,82.70
2018-03-29T03:25:06.131Z,82.50
2018-03-29T03:28:29.001Z,84.10
2018-03-29T03:31:51.836Z,82.30
2018-03-29T03:35:14.771Z,82.70
2018-03-29T03:38:37.706Z,82.00
2018-03-29T03:42:00.517Z,81.10
2018-03-29T03:45:23.389Z,81.40
2018-03-29T03:48:46.209Z,80.70
2018-03-29T03:52:09.229Z,79.60
2018-03-29T03:55:32.098Z,79.90
2018-03-29T03:58:55.047Z,81.90
2018-03-29T04:02:18.658Z,83.00
2018-03-29T04:05:41.494Z,82.90
2018-03-29T04:09:04.345Z,82.80
2018-03-29T04:12:27.191Z,82.80
2018-03-29T04:15:50.045Z,82.80
2018-03-29T04:19:12.875Z,82.90
2018-03-29T04:22:36.530Z,81.30
2018-03-29T04:25:59.365Z,81.20
2018-03-29T04:29:22.222Z,81.10
2018-03-29T04:32:45.070Z,82.40
2018-03-29T04:36:07.923Z,79.80
2018-03-29T04:39:30.775Z,81.60
2018-03-29T04:42:53.617Z,81.30
2018-03-29T04:46:16.483Z,80.70
2018-03-29T04:49:39.322Z,80.10
2018-03-29T04:53:02.155Z,79.30
2018-03-29T04:56:25.017Z,81.70
2018-03-29T04:59:47.868Z,81.80
2018-03-29T05:03:10.823Z,82.60
2018-03-29T05:06:34.423Z,83.30
2018-03-29T05:09:57.281Z,83.20
2018-03-29T05:13:20.628Z,84.40
2018-03-29T05:16:43.893Z,84.70
2018-03-29T05:20:07.433Z,83.90
2018-03-29T05:23:30.833Z,84.80
2018-03-29T05:26:54.180Z,84.20
2018-03-29T05:30:17.567Z,86.30
2018-03-29T05:33:40.835Z,86.60
2018-03-29T05:37:04.247Z,86.50
2018-03-29T05:40:28.273Z,87.90
2018-03-29T05:43:51.558Z,87.80
2018-03-29T05:47:14.850Z,89.10
2018-03-29T05:50:38.149Z,89.50
2018-03-29T05:54:01.513Z,89.60
2018-03-29T05:57:24.358Z,88.50
2018-03-29T06:00:47.185Z,90.10
2018-03-29T06:04:10.025Z,90.20
2018-03-29T06:07:32.901Z,90.20
2018-03-29T06:10:55.726Z,90.00
2018-03-29T06:14:18.589Z,89.00
2018-03-29T06:17:41.410Z,86.50
2018-03-29T06:21:04.291Z,85.60
2018-03-29T06:24:27.115Z,84.20
2018-03-29T06:27:49.981Z,85.30
2018-03-29T06:31:12.816Z,82.40
2018-03-29T06:34:35.766Z,82.90
2018-03-29T06:37:58.609Z,82.60
2018-03-29T06:41:21.455Z,82.00
2018-03-29T06:44:44.287Z,81.60
2018-03-29T06:48:07.119Z,81.60
2018-03-29T06:51:30.719Z,80.30
2018-03-29T06:54:53.565Z,80.20
2018-03-29T06:58:16.409Z,80.10
2018-03-29T07:01:39.259Z,81.30
2018-03-29T07:05:02.117Z,81.30
2018-03-29T07:08:24.947Z,81.00
2018-03-29T07:11:48.554Z,82.60
2018-03-29T07:15:11.435Z,82.50
2018-03-29T07:18:34.228Z,83.10
2018-03-29T07:21:57.079Z,82.50
2018-03-29T07:25:19.963Z,81.70
2018-03-29T07:28:43.586Z,79.80
2018-03-29T07:32:06.492Z,79.70
2018-03-29T07:35:29.341Z,78.30
2018-03-29T07:38:52.184Z,79.30
2018-03-29T07:42:15.027Z,78.90
2018-03-29T07:45:38.679Z,78.20
2018-03-29T07:49:01.599Z,78.00
2018-03-29T07:52:24.506Z,77.60
2018-03-29T07:55:47.417Z,76.00
2018-03-29T07:59:11.040Z,76.40
2018-03-29T08:02:34.016Z,76.40
2018-03-29T08:05:56.879Z,74.40
2018-03-29T08:09:19.791Z,76.10
2018-03-29T08:12:42.641Z,76.50
2018-03-29T08:16:05.459Z,76.70
2018-03-29T08:19:28.312Z,76.50
2018-03-29T08:22:51.174Z,77.20
2018-03-29T08:26:14.010Z,77.60
2018-03-29T08:29:36.949Z,77.70
2018-03-29T08:32:59.809Z,78.80
2018-03-29T08:36:22.644Z,77.50
2018-03-29T08:39:45.490Z,78.70
2018-03-29T08:43:08.323Z,77.30
2018-03-29T08:46:31.266Z,77.90
2018-03-29T08:49:54.109Z,78.00
2018-03-29T08:53:16.967Z,78.70
2018-03-29T08:56:39.880Z,77.90
2018-03-29T09:00:02.794Z,76.70
2018-03-29T09:03:25.687Z,78.40
2018-03-29T09:06:49.389Z,76.40
2018-03-29T09:10:12.627Z,76.20
2018-03-29T09:13:36.318Z,72.90
2018-03-29T09:16:59.146Z,72.90
2018-03-29T09:20:21.977Z,69.10
2018-03-29T09:23:44.843Z,68.40
2018-03-29T09:27:07.715Z,70.70
2018-03-29T09:30:30.609Z,73.30
2018-03-29T09:33:53.466Z,74.90
2018-03-29T09:37:16.304Z,73.30
2018-03-29T09:40:39.168Z,71.60
2018-03-29T09:44:02.009Z,69.10
2018-03-29T09:47:24.845Z,67.70
2018-03-29T09:50:47.709Z,68.20
2018-03-29T09:54:10.560Z,68.80
2018-03-29T09:57:33.438Z,67.40
2018-03-29T10:01:02.466Z,66.70
2018-03-29T10:04:26.071Z,66.00
2018-03-29T10:07:48.921Z,65.90
2018-03-29T10:11:11.925Z,66.10
2018-03-29T10:14:34.840Z,68.70
2018-03-29T10:17:57.718Z,67.20
2018-03-29T10:21:21.316Z,67.70
2018-03-29T10:24:44.151Z,67.70
2018-03-29T10:28:06.991Z,66.70
2018-03-29T10:31:30.640Z,65.70
2018-03-29T10:34:54.273Z,67.30
2018-03-29T10:38:17.902Z,65.00
2018-03-29T10:41:40.735Z,65.00
2018-03-29T10:45:03.604Z,64.40
2018-03-29T10:48:26.461Z,65.20
2018-03-29T10:51:49.307Z,66.40
2018-03-29T10:55:12.165Z,64.40
2018-03-29T10:58:35.771Z,65.80
2018-03-29T11:01:58.594Z,65.80
2018-03-29T11:05:22.211Z,65.40
2018-03-29T11:08:45.483Z,65.30
2018-03-29T11:12:08.349Z,64.90
2018-03-29T11:15:31.222Z,62.20
2018-03-29T11:18:54.842Z,63.60
2018-03-29T11:22:17.674Z,63.60
2018-03-29T11:25:40.517Z,62.30
2018-03-29T11:29:03.373Z,61.00
2018-03-29T11:32:26.208Z,59.10
2018-03-29T11:35:50.675Z,62.10
2018-03-29T11:39:13.511Z,62.00
2018-03-29T11:42:36.345Z,60.90
2018-03-29T11:45:59.660Z,60.80
2018-03-29T11:49:22.503Z,60.80
2018-03-29T11:52:45.366Z,62.30
2018-03-29T11:56:08.211Z,61.80
2018-03-29T11:59:31.047Z,64.40
2018-03-29T12:02:53.874Z,61.60
2018-03-29T12:06:16.718Z,64.40
2018-03-29T12:09:40.321Z,66.70
2018-03-29T12:13:03.148Z,66.60
2018-03-29T12:16:25.982Z,66.20
2018-03-29T12:19:49.583Z,63.90
2018-03-29T12:23:12.401Z,63.90
2018-03-29T12:26:35.273Z,67.80
2018-03-29T12:29:58.564Z,66.20
2018-03-29T12:33:21.830Z,65.30
2018-03-29T12:36:45.110Z,64.30
2018-03-29T12:40:09.150Z,66.30
2018-03-29T12:43:31.996Z,66.30
2018-03-29T12:46:54.847Z,66.70
2018-03-29T12:50:17.690Z,65.80
2018-03-29T12:53:40.974Z,65.50
2018-03-29T12:57:22.248Z,64.80
2018-03-29T13:00:46.312Z,64.70
2018-03-29T13:04:09.609Z,64.60
2018-03-29T13:07:32.891Z,66.50
2018-03-29T13:10:56.184Z,65.50
2018-03-29T13:14:20.216Z,66.10
2018-03-29T13:17:43.490Z,65.30
2018-03-29T13:21:06.336Z,67.90
2018-03-29T13:24:30.418Z,65.30
2018-03-29T13:27:54.492Z,66.80
2018-03-29T13:31:17.776Z,66.80
2018-03-29T13:34:41.065Z,67.30
2018-03-29T13:38:05.141Z,68.50
2018-03-29T13:41:27.980Z,68.50
2018-03-29T13:44:51.307Z,71.20
2018-03-29T13:48:14.580Z,72.80
2018-03-29T13:51:38.627Z,79.70
2018-03-29T13:55:01.899Z,79.70
2018-03-29T13:58:25.185Z,83.10
2018-03-29T14:01:49.806Z,83.80
2018-03-29T14:05:13.101Z,85.10
2018-03-29T14:08:37.169Z,86.20
2018-03-29T14:12:00.490Z,86.10
2018-03-29T14:15:23.750Z,86.80
2018-03-29T14:18:47.885Z,86.60
2018-03-29T14:22:11.189Z,86.50
2018-03-29T14:25:34.479Z,84.90
2018-03-29T14:28:58.499Z,86.20
2018-03-29T14:32:22.558Z,84.90
2018-03-29T14:35:45.882Z,84.80
2018-03-29T14:39:09.175Z,86.50
2018-03-29T14:42:32.455Z,85.80
2018-03-29T14:45:55.815Z,86.80
2018-03-29T14:49:19.076Z,85.80
2018-03-29T14:52:43.133Z,85.60
2018-03-29T14:56:06.434Z,85.50
2018-03-29T14:59:30.488Z,86.20
2018-03-29T15:02:54.561Z,85.50
2018-03-29T15:06:17.874Z,85.40
2018-03-29T15:09:41.133Z,84.40
2018-03-29T15:13:04.413Z,85.40
2018-03-29T15:16:27.655Z,84.10
2018-03-29T15:19:50.941Z,85.70
2018-03-29T15:23:14.231Z,84.20
2018-03-29T15:26:37.501Z,80.20
2018-03-29T15:30:00.776Z,77.10
2018-03-29T15:33:24.089Z,78.00
2018-03-29T15:36:48.137Z,80.40
2018-03-29T15:40:11.484Z,80.30
2018-03-29T15:43:34.778Z,80.30
2018-03-29T15:46:58.102Z,80.80
2018-03-29T15:50:22.221Z,81.40
2018-03-29T15:53:45.561Z,82.00
2018-03-29T15:57:10.326Z,79.70
2018-03-29T16:00:33.834Z,79.20
2018-03-29T16:03:57.251Z,79.00
2018-03-29T16:07:20.547Z,78.00
2018-03-29T16:10:43.893Z,75.80
2018-03-29T16:14:07.204Z,78.70
2018-03-29T16:17:30.520Z,75.00
2018-03-29T16:20:53.811Z,76.00
2018-03-29T16:24:17.084Z,76.70
2018-03-29T16:27:40.382Z,76.60
2018-03-29T16:31:03.647Z,74.70
2018-03-29T16:34:26.500Z,73.40
2018-03-29T16:37:50.102Z,76.90
2018-03-29T16:41:13.745Z,78.30
2018-03-29T16:44:36.586Z,78.30
2018-03-29T16:47:59.432Z,78.40
2018-03-29T16:51:23.716Z,78.50
2018-03-29T16:54:46.594Z,78.10
2018-03-29T16:58:09.947Z,79.00
2018-03-29T17:01:33.321Z,79.20
2018-03-29T17:04:57.872Z,80.00
2018-03-29T17:08:21.945Z,79.80
2018-03-29T17:11:46.027Z,80.30
2018-03-29T17:15:10.136Z,79.20
2018-03-29T17:18:33.446Z,79.10
2018-03-29T17:21:58.981Z,78.90
2018-03-29T17:25:22.370Z,79.90
2018-03-29T17:28:45.682Z,81.00
2018-03-29T17:32:08.962Z,81.20
2018-03-29T17:35:32.248Z,81.60
2018-03-29T17:38:56.353Z,83.60
2018-03-29T17:42:19.671Z,83.50
2018-03-29T17:45:43.775Z,83.00
2018-03-29T17:49:07.045Z,82.90
2018-03-29T17:52:30.340Z,82.20
2018-03-29T17:55:53.623Z,82.30
2018-03-29T17:59:16.915Z,82.70
2018-03-29T18:02:40.348Z,84.40
2018-03-29T18:06:03.689Z,83.90
2018-03-29T18:09:27.124Z,82.50
2018-03-29T18:12:50.902Z,84.60
2018-03-29T18:16:15.016Z,84.20
2018-03-29T18:19:38.383Z,84.00
2018-03-29T18:23:01.710Z,83.70
2018-03-29T18:26:24.994Z,84.70
2018-03-29T18:29:48.286Z,84.60
2018-03-29T18:33:11.575Z,84.90
2018-03-29T18:36:34.922Z,85.70
2018-03-29T18:39:58.208Z,85.50
2018-03-29T18:43:21.524Z,85.70
2018-03-29T18:46:44.788Z,86.10
2018-03-29T18:50:08.130Z,86.60
2018-03-29T18:53:31.424Z,86.20
2018-03-29T18:56:54.707Z,86.10
2018-03-29T19:00:18.108Z,86.50
2018-03-29T19:03:42.186Z,85.90
2018-03-29T19:07:06.369Z,85.80
2018-03-29T19:10:30.469Z,85.00
2018-03-29T19:13:53.828Z,84.90
2018-03-29T19:17:17.090Z,84.90
2018-03-29T19:20:40.391Z,85.10
2018-03-29T19:24:04.695Z,84.70
2018-03-29T19:27:27.983Z,84.60
2018-03-29T19:30:51.352Z,84.50
2018-03-29T19:34:14.735Z,85.30
2018-03-29T19:37:38.847Z,84.00
2018-03-29T19:41:02.152Z,84.00
2018-03-29T19:44:26.445Z,84.50
2018-03-29T19:47:49.833Z,85.10
2018-03-29T19:51:13.937Z,85.30
2018-03-29T19:54:37.313Z,85.10
2018-03-29T19:58:00.681Z,84.80
2018-03-29T20:01:24.036Z,85.10
2018-03-29T20:04:47.405Z,85.50
2018-03-29T20:08:11.488Z,85.70
2018-03-29T20:11:34.873Z,85.60
2018-03-29T20:14:58.955Z,85.60
2018-03-29T20:18:22.523Z,85.60
2018-03-29T20:21:45.814Z,85.10
2018-03-29T20:25:09.107Z,85.70
2018-03-29T20:28:32.415Z,85.90
2018-03-29T20:31:55.848Z,85.80
2018-03-29T20:35:19.168Z,86.40
2018-03-29T20:38:42.470Z,86.20
2018-03-29T20:42:05.740Z,86.10
2018-03-29T20:45:29.037Z,86.90
2018-03-29T20:48:53.354Z,87.10
2018-03-29T20:52:16.674Z,87.10
2018-03-29T20:55:39.990Z,87.00
2018-03-29T20:59:03.665Z,87.00
2018-03-29T21:02:27.720Z,87.50
2018-03-29T21:05:51.084Z,87.10
2018-03-29T21:09:14.453Z,87.00
2018-03-29T21:12:37.775Z,87.00
2018-03-29T21:16:01.072Z,87.20
2018-03-29T21:19:24.361Z,86.80
2018-03-29T21:22:47.891Z,86.90
2018-03-29T21:26:12.359Z,86.90
2018-03-29T21:29:35.648Z,86.90
2018-03-29T21:32:58.960Z,86.50
2018-03-29T21:36:22.341Z,86.60
2018-03-29T21:39:46.371Z,87.40
2018-03-29T21:43:09.737Z,87.30
2018-03-29T21:46:33.037Z,87.80
2018-03-29T21:49:56.370Z,88.20
2018-03-29T21:53:19.645Z,88.30
2018-03-29T21:56:42.956Z,88.90
2018-03-29T22:00:08.153Z,89.20
2018-03-29T22:03:31.481Z,89.10
2018-03-29T22:06:54.754Z,89.80
2018-03-29T22:10:18.048Z,89.90
2018-03-29T22:13:50.123Z,90.10
2018-03-29T22:17:13.404Z,90.10
2018-03-29T22:20:36.827Z,90.30
2018-03-29T22:24:00.938Z,90.10
2018-03-29T22:27:24.359Z,90.00
2018-03-29T22:30:47.708Z,89.70
2018-03-29T22:34:11.062Z,90.00
2018-03-29T22:37:34.378Z,90.10
2018-03-29T22:40:57.705Z,90.10
2018-03-29T22:44:21.001Z,90.30
2018-03-29T22:47:44.582Z,90.20
2018-03-29T22:51:08.124Z,90.50
2018-03-29T22:54:31.493Z,90.60
2018-03-29T22:57:54.787Z,91.00
2018-03-29T23:01:18.062Z,90.50
2018-03-29T23:04:41.358Z,90.50
2018-03-29T23:08:04.637Z,90.50
2018-03-29T23:11:27.913Z,90.50
2018-03-29T23:14:51.201Z,90.40
2018-03-29T23:18:14.497Z,90.40
2018-03-29T23:21:37.784Z,90.60
2018-03-29T23:25:01.086Z,90.60
2018-03-29T23:28:24.430Z,90.70
2018-03-29T23:31:47.719Z,90.80
2018-03-29T23:35:11.046Z,90.80
2018-03-29T23:38:34.345Z,90.80
2018-03-29T23:41:57.618Z,90.90
2018-03-29T23:45:20.934Z,90.70
2018-03-29T23:48:44.302Z,90.70
2018-03-29T23:52:07.618Z,90.80
2018-03-29T23:55:30.916Z,91.00
2018-03-29T23:58:54.200Z,90.90
